TimeEST,TemperatureF,Dew PointF,Humidity,Sea Level PressureIn,VisibilityMPH,Wind Direction,Wind SpeedMPH,Gust SpeedMPH,PrecipitationIn,Events,Conditions,WindDirDegrees,DateUTC
12:57 AM,39.9,36.0,86,30.31,10.0,WNW,4.6,-,N/A,,Clear,300,2013-01-06 05:57:00
1:57 AM,41.0,35.1,79,30.28,10.0,Calm,Calm,-,N/A,,Clear,0,2013-01-06 06:57:00
2:57 AM,39.9,36.0,86,30.26,10.0,Calm,Calm,-,N/A,,Clear,0,2013-01-06 07:57:00
3:57 AM,41.0,37.0,86,30.26,10.0,SW,4.6,-,N/A,,Mostly Cloudy,230,2013-01-06 08:57:00
4:57 AM,42.1,37.0,82,30.24,10.0,Calm,Calm,-,0.00,,Overcast,0,2013-01-06 09:57:00
5:57 AM,43.0,37.9,82,30.25,10.0,Calm,Calm,-,N/A,,Overcast,0,2013-01-06 10:57:00
6:57 AM,43.0,39.0,86,30.25,10.0,Calm,Calm,-,N/A,,Overcast,0,2013-01-06 11:57:00
7:57 AM,44.1,39.0,82,30.23,10.0,Calm,Calm,-,N/A,,Overcast,0,2013-01-06 12:57:00
8:57 AM,45.0,39.9,82,30.24,10.0,Calm,Calm,-,N/A,,Overcast,0,2013-01-06 13:57:00
9:57 AM,46.9,39.0,74,30.25,10.0,Calm,Calm,-,N/A,,Overcast,0,2013-01-06 14:57:00
10:57 AM,48.0,37.9,68,30.25,10.0,Calm,Calm,-,N/A,,Overcast,0,2013-01-06 15:57:00
11:57 AM,46.9,36.0,66,30.20,10.0,NNW,3.5,-,N/A,,Overcast,330,2013-01-06 16:57:00
12:57 PM,46.9,39.9,77,30.17,10.0,WNW,4.6,-,0.00,Rain,Light Rain,300,2013-01-06 17:57:00
1:57 PM,46.9,41.0,80,30.16,10.0,WNW,6.9,-,0.00,,Overcast,300,2013-01-06 18:57:00
2:57 PM,46.9,41.0,80,30.14,10.0,NW,3.5,-,N/A,,Overcast,320,2013-01-06 19:57:00
3:06 PM,46.4,41.0,81,30.14,10.0,Variable,4.6,-,N/A,,Overcast,0,2013-01-06 20:06:00
3:31 PM,46.4,42.8,87,30.13,10.0,Calm,Calm,-,N/A,,Overcast,0,2013-01-06 20:31:00
3:57 PM,48.0,42.1,80,30.14,10.0,Calm,Calm,-,N/A,,Overcast,0,2013-01-06 20:57:00
4:57 PM,46.9,41.0,80,30.13,10.0,Calm,Calm,-,N/A,,Overcast,0,2013-01-06 21:57:00
5:57 PM,46.9,42.1,83,30.13,10.0,NW,3.5,-,N/A,,Overcast,310,2013-01-06 22:57:00
6:57 PM,46.0,43.0,89,30.12,10.0,Calm,Calm,-,N/A,,Overcast,0,2013-01-06 23:57:00
7:57 PM,46.9,44.1,90,30.11,10.0,Calm,Calm,-,0.00,Rain,Light Rain,0,2013-01-07 00:57:00
8:57 PM,46.9,44.1,90,30.13,10.0,NNW,3.5,-,0.01,,Overcast,340,2013-01-07 01:57:00
9:28 PM,46.4,44.6,93,30.12,10.0,Calm,Calm,-,N/A,,Overcast,0,2013-01-07 02:28:00
9:57 PM,46.0,44.1,93,30.14,10.0,Calm,Calm,-,N/A,,Overcast,0,2013-01-07 02:57:00
10:57 PM,46.0,44.1,93,30.14,10.0,NNW,3.5,-,N/A,,Overcast,330,2013-01-07 03:57:00
11:52 PM,46.4,42.8,87,30.14,10.0,NNW,8.1,-,N/A,,Overcast,330,2013-01-07 04:52:00
11:57 PM,46.0,43.0,89,30.15,10.0,NW,8.1,-,N/A,,Overcast,310,2013-01-07 04:57:00